sensor_id;sensor_type;location;lat;lon;timestamp;P1;durP1;ratioP1;P2;durP2;ratioP2
35506;SDS011;36461;52.018;21.036;2023-03-01T00:01:46;51.60;;;28.30;;
35506;SDS011;36461;52.018;21.036;2023-03-01T00:04:14;47.90;;;26.40;;
35506;SDS011;36461;52.018;21.036;2023-03-01T00:06:42;53.20;;;29.60;;
35506;SDS011;36461;52.018;21.036;2023-03-01T00:09:14;49.80;;;28.40;;
35506;SDS011;36461;52.018;21.036;2023-03-01T00:11:43;54.00;;;30.20;;
35506;SDS011;36461;52.018;21.036;2023-03-01T00:14:12;55.10;;;29.80;;
35506;SDS011;36461;52.018;21.036;2023-03-01T00:16:41;53.00;;;28.90;;
35506;SDS011;36461;52.018;21.036;2023-03-01T00:19:14;48.00;;;27.90;;
35506;SDS011;36461;52.018;21.036;2023-03-01T00:21:44;44.80;;;25.60;;
35506;SDS011;36461;52.018;21.036;2023-03-01T00:24:13;45.10;;;26.30;;
35506;SDS011;36461;52.018;21.036;2023-03-01T00:26:41;43.30;;;25.40;;
35506;SDS011;36461;52.018;21.036;2023-03-01T00:29:09;41.10;;;24.60;;
35506;SDS011;36461;52.018;21.036;2023-03-01T00:31:37;39.70;;;24.30;;
35506;SDS011;36461;52.018;21.036;2023-03-01T00:34:05;39.30;;;24.10;;
35506;SDS011;36461;52.018;21.036;2023-03-01T00:36:35;41.00;;;26.00;;
35506;SDS011;36461;52.018;21.036;2023-03-01T00:39:05;39.70;;;23.70;;
35506;SDS011;36461;52.018;21.036;2023-03-01T00:41:38;47.80;;;25.70;;
35506;SDS011;36461;52.018;21.036;2023-03-01T00:44:08;44.00;;;26.00;;
35506;SDS011;36461;52.018;21.036;2023-03-01T00:46:36;43.50;;;26.20;;
35506;SDS011;36461;52.018;21.036;2023-03-01T00:49:05;44.80;;;26.60;;
35506;SDS011;36461;52.018;21.036;2023-03-01T00:51:33;43.50;;;25.40;;
35506;SDS011;36461;52.018;21.036;2023-03-01T00:54:01;42.80;;;25.20;;
35506;SDS011;36461;52.018;21.036;2023-03-01T00:56:30;37.10;;;24.00;;
35506;SDS011;36461;52.018;21.036;2023-03-01T00:59:00;42.00;;;23.90;;
35506;SDS011;36461;52.018;21.036;2023-03-01T01:01:29;37.50;;;23.80;;
35506;SDS011;36461;52.018;21.036;2023-03-01T01:04:00;39.50;;;24.00;;
35506;SDS011;36461;52.018;21.036;2023-03-01T01:06:35;42.60;;;23.80;;
35506;SDS011;36461;52.018;21.036;2023-03-01T01:09:07;43.80;;;25.30;;
35506;SDS011;36461;52.018;21.036;2023-03-01T01:11:35;51.00;;;25.40;;
35506;SDS011;36461;52.018;21.036;2023-03-01T01:14:04;41.80;;;25.10;;
35506;SDS011;36461;52.018;21.036;2023-03-01T01:16:32;44.70;;;26.00;;
35506;SDS011;36461;52.018;21.036;2023-03-01T01:19:01;45.80;;;25.90;;
35506;SDS011;36461;52.018;21.036;2023-03-01T01:21:30;49.90;;;26.60;;
35506;SDS011;36461;52.018;21.036;2023-03-01T01:23:58;44.60;;;26.10;;
35506;SDS011;36461;52.018;21.036;2023-03-01T01:26:28;44.90;;;25.30;;
35506;SDS011;36461;52.018;21.036;2023-03-01T01:28:59;47.00;;;26.30;;
35506;SDS011;36461;52.018;21.036;2023-03-01T01:31:29;46.20;;;26.10;;
35506;SDS011;36461;52.018;21.036;2023-03-01T01:33:58;39.50;;;23.00;;
35506;SDS011;36461;52.018;21.036;2023-03-01T01:36:27;38.50;;;22.80;;
35506;SDS011;36461;52.018;21.036;2023-03-01T01:38:56;40.40;;;23.20;;
35506;SDS011;36461;52.018;21.036;2023-03-01T01:41:27;36.10;;;22.70;;
35506;SDS011;36461;52.018;21.036;2023-03-01T01:49:35;36.00;;;22.20;;
35506;SDS011;36461;52.018;21.036;2023-03-01T01:52:10;35.20;;;22.20;;
35506;SDS011;36461;52.018;21.036;2023-03-01T01:54:47;39.50;;;23.10;;
35506;SDS011;36461;52.018;21.036;2023-03-01T01:57:37;35.10;;;22.80;;
35506;SDS011;36461;52.018;21.036;2023-03-01T02:00:10;36.00;;;21.90;;
35506;SDS011;36461;52.018;21.036;2023-03-01T02:02:43;37.40;;;22.80;;
35506;SDS011;36461;52.018;21.036;2023-03-01T02:05:15;33.00;;;20.40;;
35506;SDS011;36461;52.018;21.036;2023-03-01T02:07:55;38.90;;;22.40;;
35506;SDS011;36461;52.018;21.036;2023-03-01T02:10:25;34.20;;;20.90;;
35506;SDS011;36461;52.018;21.036;2023-03-01T02:12:56;35.90;;;20.70;;
35506;SDS011;36461;52.018;21.036;2023-03-01T02:15:24;37.50;;;22.20;;
35506;SDS011;36461;52.018;21.036;2023-03-01T02:17:54;36.20;;;21.80;;
35506;SDS011;36461;52.018;21.036;2023-03-01T02:23:09;42.80;;;24.10;;
35506;SDS011;36461;52.018;21.036;2023-03-01T02:28:35;73.00;;;33.00;;
35506;SDS011;36461;52.018;21.036;2023-03-01T02:31:05;70.70;;;33.00;;
35506;SDS011;36461;52.018;21.036;2023-03-01T02:33:54;99.50;;;43.20;;
35506;SDS011;36461;52.018;21.036;2023-03-01T02:36:31;73.80;;;35.20;;
35506;SDS011;36461;52.018;21.036;2023-03-01T02:39:05;63.00;;;31.60;;
35506;SDS011;36461;52.018;21.036;2023-03-01T02:41:35;61.80;;;31.10;;
35506;SDS011;36461;52.018;21.036;2023-03-01T02:44:05;47.30;;;26.80;;
35506;SDS011;36461;52.018;21.036;2023-03-01T02:46:33;45.10;;;25.30;;
35506;SDS011;36461;52.018;21.036;2023-03-01T02:49:01;45.00;;;24.80;;
35506;SDS011;36461;52.018;21.036;2023-03-01T02:56:59;39.40;;;21.80;;
35506;SDS011;36461;52.018;21.036;2023-03-01T02:59:30;40.00;;;22.70;;
35506;SDS011;36461;52.018;21.036;2023-03-01T03:02:17;37.00;;;21.60;;
35506;SDS011;36461;52.018;21.036;2023-03-01T03:05:19;40.00;;;21.70;;
35506;SDS011;36461;52.018;21.036;2023-03-01T03:07:51;40.50;;;22.00;;
35506;SDS011;36461;52.018;21.036;2023-03-01T03:10:20;38.80;;;21.60;;
35506;SDS011;36461;52.018;21.036;2023-03-01T03:12:54;35.00;;;21.80;;
35506;SDS011;36461;52.018;21.036;2023-03-01T03:15:24;37.30;;;21.60;;
35506;SDS011;36461;52.018;21.036;2023-03-01T03:17:55;41.70;;;24.00;;
35506;SDS011;36461;52.018;21.036;2023-03-01T03:20:26;39.70;;;22.80;;
35506;SDS011;36461;52.018;21.036;2023-03-01T03:22:56;38.70;;;21.10;;
35506;SDS011;36461;52.018;21.036;2023-03-01T03:25:28;37.10;;;22.10;;
35506;SDS011;36461;52.018;21.036;2023-03-01T03:27:57;41.10;;;23.80;;
35506;SDS011;36461;52.018;21.036;2023-03-01T03:30:30;38.30;;;22.00;;
35506;SDS011;36461;52.018;21.036;2023-03-01T03:32:59;41.20;;;21.90;;
35506;SDS011;36461;52.018;21.036;2023-03-01T03:38:01;43.00;;;23.40;;
35506;SDS011;36461;52.018;21.036;2023-03-01T03:40:44;40.60;;;22.70;;
35506;SDS011;36461;52.018;21.036;2023-03-01T03:43:18;40.80;;;22.50;;
35506;SDS011;36461;52.018;21.036;2023-03-01T03:45:48;42.60;;;22.60;;
35506;SDS011;36461;52.018;21.036;2023-03-01T03:48:18;37.80;;;21.10;;
35506;SDS011;36461;52.018;21.036;2023-03-01T03:50:47;44.40;;;23.60;;
35506;SDS011;36461;52.018;21.036;2023-03-01T03:53:21;43.30;;;23.00;;
35506;SDS011;36461;52.018;21.036;2023-03-01T03:55:51;38.50;;;21.10;;
35506;SDS011;36461;52.018;21.036;2023-03-01T03:58:20;37.30;;;20.90;;
35506;SDS011;36461;52.018;21.036;2023-03-01T04:00:51;36.80;;;20.80;;
35506;SDS011;36461;52.018;21.036;2023-03-01T04:03:21;34.40;;;22.10;;
35506;SDS011;36461;52.018;21.036;2023-03-01T04:05:50;38.80;;;21.80;;
35506;SDS011;36461;52.018;21.036;2023-03-01T04:08:20;38.70;;;20.70;;
35506;SDS011;36461;52.018;21.036;2023-03-01T04:10:50;32.60;;;19.60;;
35506;SDS011;36461;52.018;21.036;2023-03-01T04:13:20;35.60;;;21.00;;
35506;SDS011;36461;52.018;21.036;2023-03-01T04:15:50;39.20;;;22.90;;
35506;SDS011;36461;52.018;21.036;2023-03-01T04:18:19;33.50;;;19.50;;
35506;SDS011;36461;52.018;21.036;2023-03-01T04:20:49;39.00;;;21.50;;
35506;SDS011;36461;52.018;21.036;2023-03-01T04:23:20;33.90;;;20.60;;
35506;SDS011;36461;52.018;21.036;2023-03-01T04:25:52;36.70;;;20.40;;
35506;SDS011;36461;52.018;21.036;2023-03-01T04:28:23;38.20;;;20.20;;
35506;SDS011;36461;52.018;21.036;2023-03-01T04:30:54;37.80;;;20.20;;
35506;SDS011;36461;52.018;21.036;2023-03-01T04:33:25;34.00;;;21.10;;
35506;SDS011;36461;52.018;21.036;2023-03-01T04:35:53;37.50;;;20.80;;
35506;SDS011;36461;52.018;21.036;2023-03-01T04:38:21;36.70;;;21.10;;
35506;SDS011;36461;52.018;21.036;2023-03-01T04:40:49;37.50;;;21.30;;
35506;SDS011;36461;52.018;21.036;2023-03-01T04:43:18;38.00;;;20.10;;
35506;SDS011;36461;52.018;21.036;2023-03-01T04:45:46;33.70;;;19.60;;
35506;SDS011;36461;52.018;21.036;2023-03-01T04:48:14;40.20;;;22.70;;
35506;SDS011;36461;52.018;21.036;2023-03-01T04:50:42;35.30;;;20.70;;
35506;SDS011;36461;52.018;21.036;2023-03-01T04:53:10;39.10;;;21.10;;
35506;SDS011;36461;52.018;21.036;2023-03-01T04:55:38;39.70;;;21.60;;
35506;SDS011;36461;52.018;21.036;2023-03-01T04:58:06;41.60;;;21.70;;
35506;SDS011;36461;52.018;21.036;2023-03-01T05:00:34;41.70;;;22.60;;
35506;SDS011;36461;52.018;21.036;2023-03-01T05:03:02;40.40;;;21.50;;
35506;SDS011;36461;52.018;21.036;2023-03-01T05:05:40;42.50;;;23.00;;
35506;SDS011;36461;52.018;21.036;2023-03-01T05:08:08;43.60;;;22.20;;
35506;SDS011;36461;52.018;21.036;2023-03-01T05:10:36;45.70;;;23.30;;
35506;SDS011;36461;52.018;21.036;2023-03-01T05:13:06;41.80;;;23.30;;
35506;SDS011;36461;52.018;21.036;2023-03-01T05:15:34;38.50;;;21.80;;
35506;SDS011;36461;52.018;21.036;2023-03-01T05:18:04;35.80;;;21.40;;
35506;SDS011;36461;52.018;21.036;2023-03-01T05:20:38;31.30;;;19.70;;
35506;SDS011;36461;52.018;21.036;2023-03-01T05:23:06;33.50;;;19.20;;
35506;SDS011;36461;52.018;21.036;2023-03-01T05:25:34;32.90;;;18.80;;
35506;SDS011;36461;52.018;21.036;2023-03-01T05:28:02;35.50;;;19.60;;
35506;SDS011;36461;52.018;21.036;2023-03-01T05:30:34;33.10;;;18.90;;
35506;SDS011;36461;52.018;21.036;2023-03-01T05:33:03;29.50;;;18.90;;
35506;SDS011;36461;52.018;21.036;2023-03-01T05:35:32;31.70;;;18.40;;
35506;SDS011;36461;52.018;21.036;2023-03-01T05:38:01;31.70;;;18.30;;
35506;SDS011;36461;52.018;21.036;2023-03-01T05:40:29;33.20;;;18.60;;
35506;SDS011;36461;52.018;21.036;2023-03-01T05:42:57;29.70;;;18.00;;
35506;SDS011;36461;52.018;21.036;2023-03-01T05:45:26;33.70;;;19.10;;
35506;SDS011;36461;52.018;21.036;2023-03-01T05:47:54;34.80;;;19.20;;
35506;SDS011;36461;52.018;21.036;2023-03-01T05:50:25;33.80;;;18.80;;
35506;SDS011;36461;52.018;21.036;2023-03-01T05:52:58;34.40;;;19.30;;
35506;SDS011;36461;52.018;21.036;2023-03-01T05:55:28;34.30;;;19.70;;
35506;SDS011;36461;52.018;21.036;2023-03-01T05:57:59;34.50;;;20.30;;
35506;SDS011;36461;52.018;21.036;2023-03-01T06:00:31;34.70;;;20.70;;
35506;SDS011;36461;52.018;21.036;2023-03-01T06:03:00;41.60;;;22.10;;
35506;SDS011;36461;52.018;21.036;2023-03-01T06:05:29;39.40;;;21.80;;
35506;SDS011;36461;52.018;21.036;2023-03-01T06:08:00;43.20;;;22.40;;
35506;SDS011;36461;52.018;21.036;2023-03-01T06:10:29;41.30;;;22.90;;
35506;SDS011;36461;52.018;21.036;2023-03-01T06:12:57;48.00;;;25.10;;
35506;SDS011;36461;52.018;21.036;2023-03-01T06:15:26;46.10;;;24.90;;
35506;SDS011;36461;52.018;21.036;2023-03-01T06:17:55;48.40;;;25.90;;
35506;SDS011;36461;52.018;21.036;2023-03-01T06:20:27;44.80;;;24.40;;
35506;SDS011;36461;52.018;21.036;2023-03-01T06:22:56;38.50;;;21.90;;
35506;SDS011;36461;52.018;21.036;2023-03-01T06:25:26;37.90;;;21.50;;
35506;SDS011;36461;52.018;21.036;2023-03-01T06:27:55;32.50;;;20.60;;
35506;SDS011;36461;52.018;21.036;2023-03-01T06:30:24;35.70;;;20.90;;
35506;SDS011;36461;52.018;21.036;2023-03-01T06:32:53;35.90;;;22.00;;
35506;SDS011;36461;52.018;21.036;2023-03-01T06:35:29;40.00;;;23.10;;
35506;SDS011;36461;52.018;21.036;2023-03-01T06:38:00;34.60;;;19.90;;
35506;SDS011;36461;52.018;21.036;2023-03-01T06:40:31;35.70;;;19.50;;
35506;SDS011;36461;52.018;21.036;2023-03-01T06:42:59;34.30;;;19.50;;
35506;SDS011;36461;52.018;21.036;2023-03-01T06:45:28;28.20;;;18.60;;
35506;SDS011;36461;52.018;21.036;2023-03-01T06:48:06;32.20;;;17.90;;
35506;SDS011;36461;52.018;21.036;2023-03-01T06:50:35;29.70;;;17.60;;
35506;SDS011;36461;52.018;21.036;2023-03-01T06:53:03;30.80;;;17.70;;
35506;SDS011;36461;52.018;21.036;2023-03-01T06:55:32;31.20;;;17.70;;
35506;SDS011;36461;52.018;21.036;2023-03-01T06:58:01;34.20;;;19.70;;
35506;SDS011;36461;52.018;21.036;2023-03-01T07:00:30;40.10;;;23.40;;
35506;SDS011;36461;52.018;21.036;2023-03-01T07:02:59;39.70;;;22.90;;
35506;SDS011;36461;52.018;21.036;2023-03-01T07:05:30;49.40;;;27.70;;
35506;SDS011;36461;52.018;21.036;2023-03-01T07:07:58;58.30;;;30.50;;
35506;SDS011;36461;52.018;21.036;2023-03-01T07:10:26;43.40;;;25.90;;
35506;SDS011;36461;52.018;21.036;2023-03-01T07:12:55;34.80;;;20.10;;
35506;SDS011;36461;52.018;21.036;2023-03-01T07:15:24;35.80;;;20.90;;
35506;SDS011;36461;52.018;21.036;2023-03-01T07:17:54;32.00;;;19.30;;
35506;SDS011;36461;52.018;21.036;2023-03-01T07:20:24;29.60;;;18.20;;
35506;SDS011;36461;52.018;21.036;2023-03-01T07:22:54;31.00;;;18.10;;
35506;SDS011;36461;52.018;21.036;2023-03-01T07:25:24;28.30;;;18.00;;
35506;SDS011;36461;52.018;21.036;2023-03-01T07:27:52;30.60;;;18.00;;
35506;SDS011;36461;52.018;21.036;2023-03-01T07:30:21;26.70;;;16.00;;
35506;SDS011;36461;52.018;21.036;2023-03-01T07:32:50;28.60;;;16.50;;
35506;SDS011;36461;52.018;21.036;2023-03-01T07:35:21;28.60;;;16.60;;
35506;SDS011;36461;52.018;21.036;2023-03-01T07:37:51;28.60;;;16.90;;
35506;SDS011;36461;52.018;21.036;2023-03-01T07:40:20;30.00;;;18.10;;
35506;SDS011;36461;52.018;21.036;2023-03-01T07:42:48;35.90;;;19.80;;
35506;SDS011;36461;52.018;21.036;2023-03-01T07:45:16;32.50;;;18.40;;
35506;SDS011;36461;52.018;21.036;2023-03-01T07:47:44;32.30;;;18.40;;
35506;SDS011;36461;52.018;21.036;2023-03-01T07:50:12;32.20;;;18.70;;
35506;SDS011;36461;52.018;21.036;2023-03-01T07:52:41;31.70;;;18.10;;
35506;SDS011;36461;52.018;21.036;2023-03-01T07:55:09;30.10;;;19.10;;
35506;SDS011;36461;52.018;21.036;2023-03-01T07:57:37;30.50;;;17.80;;
35506;SDS011;36461;52.018;21.036;2023-03-01T08:00:07;33.10;;;17.00;;
35506;SDS011;36461;52.018;21.036;2023-03-01T08:02:40;26.70;;;15.40;;
35506;SDS011;36461;52.018;21.036;2023-03-01T08:05:09;26.90;;;15.30;;
35506;SDS011;36461;52.018;21.036;2023-03-01T08:07:38;26.40;;;15.80;;
35506;SDS011;36461;52.018;21.036;2023-03-01T08:10:06;26.30;;;15.60;;
35506;SDS011;36461;52.018;21.036;2023-03-01T08:12:34;25.80;;;14.10;;
35506;SDS011;36461;52.018;21.036;2023-03-01T08:15:03;24.30;;;14.00;;
35506;SDS011;36461;52.018;21.036;2023-03-01T08:17:31;22.30;;;13.20;;
35506;SDS011;36461;52.018;21.036;2023-03-01T08:19:59;20.70;;;12.40;;
35506;SDS011;36461;52.018;21.036;2023-03-01T08:22:27;22.60;;;13.70;;
35506;SDS011;36461;52.018;21.036;2023-03-01T08:24:55;23.70;;;13.70;;
35506;SDS011;36461;52.018;21.036;2023-03-01T08:27:23;25.10;;;15.10;;
35506;SDS011;36461;52.018;21.036;2023-03-01T08:29:52;24.90;;;14.10;;
35506;SDS011;36461;52.018;21.036;2023-03-01T08:32:20;23.00;;;13.80;;
35506;SDS011;36461;52.018;21.036;2023-03-01T08:34:48;24.30;;;13.80;;
35506;SDS011;36461;52.018;21.036;2023-03-01T08:37:16;26.80;;;14.00;;
35506;SDS011;36461;52.018;21.036;2023-03-01T08:39:44;27.80;;;14.30;;
35506;SDS011;36461;52.018;21.036;2023-03-01T08:42:12;24.20;;;15.20;;
35506;SDS011;36461;52.018;21.036;2023-03-01T08:44:40;25.50;;;14.90;;
35506;SDS011;36461;52.018;21.036;2023-03-01T08:47:08;23.90;;;13.80;;
35506;SDS011;36461;52.018;21.036;2023-03-01T08:49:36;27.10;;;14.70;;
35506;SDS011;36461;52.018;21.036;2023-03-01T08:52:04;24.30;;;15.10;;
35506;SDS011;36461;52.018;21.036;2023-03-01T08:54:32;24.10;;;14.80;;
35506;SDS011;36461;52.018;21.036;2023-03-01T08:57:01;25.00;;;14.80;;
35506;SDS011;36461;52.018;21.036;2023-03-01T08:59:30;24.10;;;15.30;;
35506;SDS011;36461;52.018;21.036;2023-03-01T09:02:04;26.80;;;15.00;;
35506;SDS011;36461;52.018;21.036;2023-03-01T09:04:32;23.80;;;14.10;;
35506;SDS011;36461;52.018;21.036;2023-03-01T09:07:01;22.00;;;13.50;;
35506;SDS011;36461;52.018;21.036;2023-03-01T09:09:29;21.40;;;12.90;;
35506;SDS011;36461;52.018;21.036;2023-03-01T09:11:57;22.30;;;13.40;;
35506;SDS011;36461;52.018;21.036;2023-03-01T09:14:25;21.50;;;13.70;;
35506;SDS011;36461;52.018;21.036;2023-03-01T09:16:53;20.90;;;13.30;;
35506;SDS011;36461;52.018;21.036;2023-03-01T09:19:22;25.20;;;15.10;;
35506;SDS011;36461;52.018;21.036;2023-03-01T09:21:52;23.50;;;14.70;;
35506;SDS011;36461;52.018;21.036;2023-03-01T09:24:21;19.20;;;12.00;;
35506;SDS011;36461;52.018;21.036;2023-03-01T09:26:52;18.10;;;11.60;;
35506;SDS011;36461;52.018;21.036;2023-03-01T09:29:22;19.50;;;10.30;;
35506;SDS011;36461;52.018;21.036;2023-03-01T09:31:50;21.60;;;11.10;;
35506;SDS011;36461;52.018;21.036;2023-03-01T09:34:18;20.70;;;10.50;;
35506;SDS011;36461;52.018;21.036;2023-03-01T09:36:51;15.50;;;10.20;;
35506;SDS011;36461;52.018;21.036;2023-03-01T09:39:19;18.50;;;10.50;;
35506;SDS011;36461;52.018;21.036;2023-03-01T09:47:21;16.70;;;10.20;;
35506;SDS011;36461;52.018;21.036;2023-03-01T09:50:13;18.50;;;10.90;;
35506;SDS011;36461;52.018;21.036;2023-03-01T09:52:43;17.60;;;10.70;;
35506;SDS011;36461;52.018;21.036;2023-03-01T09:58:13;16.40;;;10.20;;
35506;SDS011;36461;52.018;21.036;2023-03-01T10:00:49;16.90;;;9.90;;
35506;SDS011;36461;52.018;21.036;2023-03-01T10:03:23;15.00;;;10.10;;
35506;SDS011;36461;52.018;21.036;2023-03-01T10:06:03;17.90;;;10.30;;
35506;SDS011;36461;52.018;21.036;2023-03-01T10:08:50;20.10;;;9.90;;
35506;SDS011;36461;52.018;21.036;2023-03-01T10:11:25;14.30;;;9.80;;
35506;SDS011;36461;52.018;21.036;2023-03-01T10:14:03;15.80;;;9.30;;
35506;SDS011;36461;52.018;21.036;2023-03-01T10:16:50;17.90;;;9.90;;
35506;SDS011;36461;52.018;21.036;2023-03-01T10:19:46;16.80;;;9.30;;
35506;SDS011;36461;52.018;21.036;2023-03-01T10:24:51;14.60;;;8.70;;
35506;SDS011;36461;52.018;21.036;2023-03-01T10:27:33;14.90;;;8.20;;
35506;SDS011;36461;52.018;21.036;2023-03-01T10:32:37;14.40;;;8.30;;
35506;SDS011;36461;52.018;21.036;2023-03-01T10:38:07;11.20;;;7.00;;
35506;SDS011;36461;52.018;21.036;2023-03-01T10:40:49;10.90;;;7.40;;
35506;SDS011;36461;52.018;21.036;2023-03-01T10:43:17;12.30;;;7.20;;
35506;SDS011;36461;52.018;21.036;2023-03-01T10:45:47;11.60;;;6.90;;
35506;SDS011;36461;52.018;21.036;2023-03-01T10:48:16;11.00;;;7.20;;
35506;SDS011;36461;52.018;21.036;2023-03-01T10:53:28;13.10;;;7.30;;
35506;SDS011;36461;52.018;21.036;2023-03-01T10:56:18;13.10;;;7.50;;
35506;SDS011;36461;52.018;21.036;2023-03-01T11:01:25;10.70;;;6.50;;
35506;SDS011;36461;52.018;21.036;2023-03-01T11:06:33;16.20;;;8.00;;
35506;SDS011;36461;52.018;21.036;2023-03-01T11:09:21;12.60;;;7.40;;
35506;SDS011;36461;52.018;21.036;2023-03-01T11:11:51;11.40;;;7.60;;
35506;SDS011;36461;52.018;21.036;2023-03-01T11:14:22;12.50;;;8.20;;
35506;SDS011;36461;52.018;21.036;2023-03-01T11:16:59;11.90;;;7.90;;
35506;SDS011;36461;52.018;21.036;2023-03-01T11:19:32;10.70;;;7.40;;
35506;SDS011;36461;52.018;21.036;2023-03-01T11:22:02;13.00;;;7.50;;
35506;SDS011;36461;52.018;21.036;2023-03-01T11:24:53;15.00;;;8.20;;
35506;SDS011;36461;52.018;21.036;2023-03-01T11:27:37;15.10;;;9.20;;
35506;SDS011;36461;52.018;21.036;2023-03-01T11:30:21;16.90;;;9.00;;
35506;SDS011;36461;52.018;21.036;2023-03-01T11:36:30;14.70;;;8.50;;
35506;SDS011;36461;52.018;21.036;2023-03-01T11:38:50;14.60;;;8.60;;
35506;SDS011;36461;52.018;21.036;2023-03-01T11:41:20;16.50;;;9.60;;
35506;SDS011;36461;52.018;21.036;2023-03-01T11:44:00;16.20;;;9.60;;
35506;SDS011;36461;52.018;21.036;2023-03-01T11:46:34;15.00;;;9.00;;
35506;SDS011;36461;52.018;21.036;2023-03-01T11:54:50;14.00;;;8.80;;
35506;SDS011;36461;52.018;21.036;2023-03-01T11:57:48;15.00;;;9.20;;
35506;SDS011;36461;52.018;21.036;2023-03-01T12:14:28;14.00;;;9.80;;
35506;SDS011;36461;52.018;21.036;2023-03-01T12:20:03;21.00;;;12.30;;
35506;SDS011;36461;52.018;21.036;2023-03-01T12:22:44;16.40;;;10.90;;
35506;SDS011;36461;52.018;21.036;2023-03-01T12:28:04;19.20;;;10.60;;
35506;SDS011;36461;52.018;21.036;2023-03-01T12:33:41;17.60;;;10.40;;
35506;SDS011;36461;52.018;21.036;2023-03-01T12:41:50;20.90;;;12.80;;
35506;SDS011;36461;52.018;21.036;2023-03-01T12:50:37;16.60;;;9.80;;
35506;SDS011;36461;52.018;21.036;2023-03-01T12:53:07;17.00;;;10.30;;
35506;SDS011;36461;52.018;21.036;2023-03-01T12:55:54;16.90;;;10.50;;
35506;SDS011;36461;52.018;21.036;2023-03-01T12:58:39;17.20;;;10.60;;
35506;SDS011;36461;52.018;21.036;2023-03-01T13:01:27;20.10;;;11.00;;
35506;SDS011;36461;52.018;21.036;2023-03-01T13:04:50;16.90;;;9.70;;
35506;SDS011;36461;52.018;21.036;2023-03-01T13:07:15;18.00;;;10.60;;
35506;SDS011;36461;52.018;21.036;2023-03-01T13:12:44;17.00;;;10.30;;
35506;SDS011;36461;52.018;21.036;2023-03-01T13:17:55;15.70;;;10.00;;
35506;SDS011;36461;52.018;21.036;2023-03-01T13:33:44;16.90;;;9.70;;
35506;SDS011;36461;52.018;21.036;2023-03-01T13:39:03;17.80;;;10.90;;
35506;SDS011;36461;52.018;21.036;2023-03-01T13:47:08;18.20;;;11.30;;
35506;SDS011;36461;52.018;21.036;2023-03-01T13:52:36;17.30;;;11.00;;
35506;SDS011;36461;52.018;21.036;2023-03-01T13:55:23;19.00;;;10.90;;
35506;SDS011;36461;52.018;21.036;2023-03-01T13:57:56;18.70;;;11.90;;
35506;SDS011;36461;52.018;21.036;2023-03-01T14:00:37;20.90;;;12.90;;
35506;SDS011;36461;52.018;21.036;2023-03-01T14:05:39;30.70;;;20.40;;
35506;SDS011;36461;52.018;21.036;2023-03-01T14:08:21;19.20;;;12.40;;
35506;SDS011;36461;52.018;21.036;2023-03-01T14:11:02;17.00;;;11.70;;
35506;SDS011;36461;52.018;21.036;2023-03-01T14:19:47;21.20;;;13.60;;
35506;SDS011;36461;52.018;21.036;2023-03-01T14:22:26;20.00;;;12.20;;
35506;SDS011;36461;52.018;21.036;2023-03-01T14:25:00;17.60;;;12.30;;
35506;SDS011;36461;52.018;21.036;2023-03-01T14:28:13;18.20;;;11.60;;
35506;SDS011;36461;52.018;21.036;2023-03-01T14:30:48;21.70;;;13.00;;
35506;SDS011;36461;52.018;21.036;2023-03-01T14:33:32;22.30;;;12.70;;
35506;SDS011;36461;52.018;21.036;2023-03-01T14:36:05;19.60;;;12.50;;
35506;SDS011;36461;52.018;21.036;2023-03-01T14:38:36;19.00;;;12.60;;
35506;SDS011;36461;52.018;21.036;2023-03-01T14:41:12;20.50;;;12.50;;
35506;SDS011;36461;52.018;21.036;2023-03-01T14:43:50;20.40;;;12.30;;
35506;SDS011;36461;52.018;21.036;2023-03-01T14:46:23;20.30;;;13.00;;
35506;SDS011;36461;52.018;21.036;2023-03-01T14:48:53;22.10;;;13.20;;
35506;SDS011;36461;52.018;21.036;2023-03-01T14:51:24;19.70;;;12.30;;
35506;SDS011;36461;52.018;21.036;2023-03-01T14:53:52;19.70;;;12.20;;
35506;SDS011;36461;52.018;21.036;2023-03-01T14:56:21;21.70;;;13.80;;
35506;SDS011;36461;52.018;21.036;2023-03-01T14:58:53;21.20;;;13.60;;
35506;SDS011;36461;52.018;21.036;2023-03-01T15:01:26;21.00;;;13.60;;
35506;SDS011;36461;52.018;21.036;2023-03-01T15:03:56;26.90;;;17.30;;
35506;SDS011;36461;52.018;21.036;2023-03-01T15:06:24;28.40;;;18.70;;
35506;SDS011;36461;52.018;21.036;2023-03-01T15:08:53;26.30;;;17.10;;
35506;SDS011;36461;52.018;21.036;2023-03-01T15:11:31;22.10;;;14.60;;
35506;SDS011;36461;52.018;21.036;2023-03-01T15:14:00;22.90;;;15.20;;
35506;SDS011;36461;52.018;21.036;2023-03-01T15:16:29;25.40;;;14.90;;
35506;SDS011;36461;52.018;21.036;2023-03-01T15:19:04;23.50;;;15.40;;
35506;SDS011;36461;52.018;21.036;2023-03-01T15:21:38;20.80;;;14.00;;
35506;SDS011;36461;52.018;21.036;2023-03-01T15:26:51;30.80;;;17.50;;
35506;SDS011;36461;52.018;21.036;2023-03-01T15:29:26;25.30;;;17.10;;
35506;SDS011;36461;52.018;21.036;2023-03-01T15:32:02;34.30;;;21.80;;
35506;SDS011;36461;52.018;21.036;2023-03-01T15:34:36;27.90;;;17.20;;
35506;SDS011;36461;52.018;21.036;2023-03-01T15:37:06;25.10;;;15.60;;
35506;SDS011;36461;52.018;21.036;2023-03-01T15:42:48;28.50;;;19.20;;
35506;SDS011;36461;52.018;21.036;2023-03-01T15:47:46;27.50;;;16.40;;
35506;SDS011;36461;52.018;21.036;2023-03-01T15:50:20;19.30;;;12.20;;
35506;SDS011;36461;52.018;21.036;2023-03-01T15:52:54;21.80;;;12.40;;
35506;SDS011;36461;52.018;21.036;2023-03-01T15:55:27;20.60;;;12.30;;
35506;SDS011;36461;52.018;21.036;2023-03-01T15:58:12;19.00;;;11.90;;
35506;SDS011;36461;52.018;21.036;2023-03-01T16:00:43;21.40;;;10.90;;
35506;SDS011;36461;52.018;21.036;2023-03-01T16:03:27;19.20;;;10.70;;
35506;SDS011;36461;52.018;21.036;2023-03-01T16:05:56;17.30;;;10.70;;
35506;SDS011;36461;52.018;21.036;2023-03-01T16:08:25;18.40;;;11.20;;
35506;SDS011;36461;52.018;21.036;2023-03-01T16:10:53;17.80;;;10.60;;
35506;SDS011;36461;52.018;21.036;2023-03-01T16:13:22;19.00;;;11.90;;
35506;SDS011;36461;52.018;21.036;2023-03-01T16:15:50;22.60;;;12.60;;
35506;SDS011;36461;52.018;21.036;2023-03-01T16:18:19;18.90;;;11.20;;
35506;SDS011;36461;52.018;21.036;2023-03-01T16:20:47;28.00;;;17.20;;
35506;SDS011;36461;52.018;21.036;2023-03-01T16:23:16;25.80;;;17.40;;
35506;SDS011;36461;52.018;21.036;2023-03-01T16:25:44;23.30;;;15.20;;
35506;SDS011;36461;52.018;21.036;2023-03-01T16:28:12;21.30;;;13.80;;
35506;SDS011;36461;52.018;21.036;2023-03-01T16:30:45;22.10;;;13.60;;
35506;SDS011;36461;52.018;21.036;2023-03-01T16:33:16;19.50;;;12.40;;
35506;SDS011;36461;52.018;21.036;2023-03-01T16:36:01;21.20;;;12.20;;
35506;SDS011;36461;52.018;21.036;2023-03-01T16:38:34;18.50;;;10.50;;
35506;SDS011;36461;52.018;21.036;2023-03-01T16:41:02;18.90;;;11.10;;
35506;SDS011;36461;52.018;21.036;2023-03-01T16:43:30;18.60;;;11.60;;
35506;SDS011;36461;52.018;21.036;2023-03-01T16:45:59;18.00;;;11.20;;
35506;SDS011;36461;52.018;21.036;2023-03-01T16:48:27;18.00;;;10.60;;
35506;SDS011;36461;52.018;21.036;2023-03-01T16:50:56;19.90;;;10.50;;
35506;SDS011;36461;52.018;21.036;2023-03-01T16:53:28;17.30;;;11.00;;